Data for 12/16/2012

Time Sea-Level Adjusted Pressure Absolute Pressure Temperature Relative Humidity Dew Point   
(mb) (inHg) (mb) (inHg) (C) (F) (%) (C) (F)
00:05 1006 29.71 835 24.66 -8.1 17.5 78 -11.3 11.6
00:10 1006 29.71 835 24.66 -8 17.7 77 -11.3 11.6
00:15 1006 29.71 835 24.66 -8.1 17.5 77 -11.4 11.5
00:20 1006 29.71 835 24.66 -8.2 17.3 78 -11.3 11.6
00:25 1006 29.71 835 24.66 -8.4 16.9 79 -11.4 11.5
00:30 1006 29.71 835 24.66 -8.4 16.9 79 -11.4 11.5
00:35 1006 29.71 835 24.66 -8.3 17 78 -11.4 11.4
00:40 1006 29.71 835 24.66 -8.3 17.1 79 -11.4 11.6
00:45 1006 29.71 835 24.66 -8.3 17 79 -11.3 11.6
00:50 1005 29.68 835 24.66 -8.1 17.3 79 -11.2 11.9
00:55 1005 29.68 835 24.66 -7.9 17.8 78 -11.1 12.1
01:00 1005 29.68 835 24.66 -8 17.7 77 -11.3 11.6
01:05 1005 29.68 835 24.66 -7.9 17.9 77 -11.3 11.7
01:10 1005 29.68 835 24.66 -8 17.6 77 -11.4 11.4
01:15 1005 29.68 835 24.66 -8.1 17.4 76 -11.6 11.1
01:20 1005 29.68 834 24.63 -8.7 16.4 78 -11.9 10.6
01:25 1005 29.68 834 24.63 -8.9 16 78 -12 10.4
01:30 1005 29.68 834 24.63 -8.8 16.1 77 -12.1 10.2
01:35 1005 29.68 834 24.63 -8.5 16.7 77 -11.9 10.6
01:40 1005 29.68 834 24.63 -8.3 17.1 77 -11.6 11.2
01:45 1005 29.68 834 24.63 -8.1 17.5 76 -11.5 11.2
01:50 1005 29.68 834 24.63 -8.3 17 76 -11.8 10.8
01:55 1005 29.68 834 24.63 -8.6 16.6 77 -11.9 10.5
02:00 1005 29.68 834 24.63 -8.2 17.2 75 -11.9 10.5
02:05 1005 29.68 834 24.63 -8.1 17.5 76 -11.7 11
02:10 1005 29.68 834 24.63 -8.1 17.4 76 -11.6 11.2
02:15 1005 29.68 834 24.63 -8.3 17.1 77 -11.6 11.1
02:20 1005 29.68 834 24.63 -8.2 17.2 77 -11.7 11
02:25 1005 29.68 834 24.63 -8.3 17.1 76 -11.7 10.9
02:30 1005 29.68 834 24.63 -8.6 16.5 77 -11.9 10.6
02:35 1005 29.68 834 24.63 -8.8 16.2 77 -12.1 10.3
02:40 1005 29.68 834 24.63 -8.9 15.9 78 -12.1 10.1
02:45 1005 29.68 834 24.63 -8.8 16.2 78 -11.9 10.5
02:50 1005 29.68 834 24.63 -8.8 16.1 80 -11.6 11
02:55 1005 29.68 834 24.63 -8.9 16.1 78 -12 10.5
03:00 1005 29.68 834 24.63 -9 15.8 78 -12.1 10.2
03:05 1005 29.68 834 24.63 -8.2 17.2 76 -11.8 10.8
03:10 1005 29.68 834 24.63 -8.1 17.4 76 -11.7 10.9
03:15 1005 29.68 834 24.63 -7.8 18 73 -11.8 10.8
03:20 1005 29.68 834 24.63 -7.9 17.7 73 -11.9 10.5
03:25 1005 29.68 834 24.63 -8 17.6 73 -12.1 10.2
03:30 1005 29.68 834 24.63 -7.9 17.9 73 -11.9 10.5
03:35 1005 29.68 834 24.63 -7.9 17.9 73 -11.8 10.7
03:40 1005 29.68 834 24.63 -7.8 18 73 -11.7 10.9
03:45 1005 29.68 834 24.63 -7.8 17.9 73 -11.8 10.8
03:50 1005 29.68 834 24.63 -8.1 17.4 74 -11.9 10.6
03:55 1005 29.68 834 24.63 -8.2 17.2 75 -11.9 10.6
04:00 1005 29.68 834 24.63 -8 17.7 74 -11.8 10.7
04:05 1005 29.68 834 24.63 -7.7 18.1 73 -11.8 10.7
04:10 1005 29.68 834 24.63 -7.9 17.9 72 -12.1 10.3
04:15 1005 29.68 834 24.63 -8.1 17.4 73 -12.1 10.3
04:20 1005 29.68 834 24.63 -7.9 17.8 72 -12.2 10.1
04:25 1005 29.68 834 24.63 -7.8 18 71 -12.1 10.2
04:30 1005 29.68 834 24.63 -7.3 18.8 70 -11.8 10.7
04:35 1005 29.68 834 24.63 -7.5 18.4 72 -11.8 10.7
04:40 1005 29.68 834 24.63 -8.2 17.2 75 -11.9 10.5
04:45 1005 29.68 834 24.63 -7.7 18.2 72 -11.9 10.5
04:50 1005 29.68 834 24.63 -7.2 19 71 -11.7 11
04:55 1005 29.68 834 24.63 -7 19.5 70 -11.5 11.3
05:00 1005 29.68 834 24.63 -7.1 19.3 68 -12 10.3
05:05 1005 29.68 834 24.63 -7 19.5 73 -11 12.3
05:10 1005 29.68 834 24.63 -8.2 17.3 77 -11.5 11.3
05:15 1005 29.68 834 24.63 -8.5 16.7 75 -12.1 10.2
05:20 1005 29.68 834 24.63 -8.2 17.2 74 -12.1 10.3
05:25 1005 29.68 834 24.63 -8.3 17.1 74 -12.1 10.3
05:30 1005 29.68 834 24.63 -7.9 17.8 74 -11.8 10.7
05:35 1005 29.68 834 24.63 -7.8 18 74 -11.7 10.9
05:40 1005 29.68 834 24.63 -7.8 17.9 74 -11.7 10.9
05:45 1005 29.68 834 24.63 -7.5 18.6 74 -11.4 11.5
05:50 1005 29.68 834 24.63 -6.7 19.9 69 -11.6 11.1
05:55 1005 29.68 834 24.63 -6.3 20.7 71 -10.7 12.7
06:00 1005 29.68 834 24.63 -6.9 19.6 74 -10.8 12.6
06:05 1005 29.68 834 24.63 -7.3 18.8 74 -11.3 11.7
06:10 1005 29.68 834 24.63 -6.8 19.7 74 -10.7 12.7
06:15 1005 29.68 834 24.63 -7.1 19.3 76 -10.7 12.8
06:20 1005 29.68 834 24.63 -7.3 19 77 -10.7 12.8
06:25 1005 29.68 834 24.63 -7.2 19.1 77 -10.6 12.8
06:30 1005 29.68 834 24.63 -7.2 19 77 -10.5 13
06:35 1005 29.68 834 24.63 -7.1 19.1 77 -10.4 13.2
06:40 1005 29.68 834 24.63 -6.9 19.6 77 -10.3 13.5
06:45 1005 29.68 834 24.63 -6.8 19.7 78 -10.1 13.9
06:50 1005 29.68 834 24.63 -6.6 20.1 78 -9.9 14.2
06:55 1005 29.68 834 24.63 -6.4 20.5 78 -9.7 14.6
07:00 1005 29.68 834 24.63 -6.4 20.5 78 -9.6 14.8
07:05 1005 29.68 834 24.63 -6.3 20.6 79 -9.4 15.1
07:10 1005 29.68 834 24.63 -6.1 21.1 79 -9.1 15.6
07:15 1005 29.68 834 24.63 -6.1 21 80 -9 15.8
07:20 1005 29.68 834 24.63 -6.1 21.1 81 -8.9 16
07:25 1005 29.68 834 24.63 -6 21.1 80 -8.9 15.9
07:30 1005 29.68 834 24.63 -6 21.2 82 -8.6 16.6
07:35 1005 29.68 834 24.63 -6 21.1 81 -8.7 16.3
07:40 1005 29.68 834 24.63 -6 21.2 83 -8.4 16.9
07:45 1005 29.68 834 24.63 -6.1 21.1 82 -8.6 16.5
07:50 1005 29.68 834 24.63 -5.7 21.7 82 -8.4 17
07:55 1005 29.68 835 24.66 -5.7 21.7 82 -8.3 17
08:00 1005 29.68 835 24.66 -5.5 22.1 81 -8.3 17
08:05 1005 29.68 835 24.66 -5.3 22.5 80 -8.3 17.1
08:10 1005 29.68 835 24.66 -5.3 22.5 80 -8.3 17.1
08:15 1005 29.68 835 24.66 -5.2 22.7 79 -8.3 17.1
08:20 1005 29.68 835 24.66 -5.1 22.9 79 -8.2 17.3
08:25 1006 29.71 835 24.66 -4.9 23.2 75 -8.6 16.5
08:30 1006 29.71 835 24.66 -4.8 23.4 76 -8.5 16.8
08:35 1006 29.71 835 24.66 -4.6 23.6 74 -8.7 16.4
08:40 1006 29.71 835 24.66 -4.5 24 71 -9 15.9
08:45 1006 29.71 835 24.66 -4.4 24.2 74 -8.4 16.9
08:50 1005 29.68 835 24.66 -4.4 24 75 -8.3 17.1
08:55 1005 29.68 835 24.66 -4.4 24.1 75 -8.2 17.2
09:00 1006 29.71 835 24.66 -4.5 24 75 -8.2 17.2
09:05 1006 29.71 835 24.66 -4.2 24.4 73 -8.4 16.9
09:10 1006 29.71 835 24.66 -4.1 24.6 73 -8.2 17.2
09:15 1006 29.71 835 24.66 -4.4 24.1 77 -7.9 17.8
09:20 1006 29.71 835 24.66 -4.8 23.3 79 -7.9 17.8
09:25 1006 29.71 835 24.66 -5.1 22.8 80 -8.1 17.5
09:30 1006 29.71 835 24.66 -5.2 22.7 79 -8.2 17.3
09:35 1006 29.71 835 24.66 -4.6 23.7 70 -9.3 15.3
09:40 1006 29.71 835 24.66 -3.7 25.4 67 -8.9 16
09:45 1006 29.71 835 24.66 -3.4 25.9 66 -8.9 15.9
09:50 1006 29.71 835 24.66 -3.2 26.2 63 -9.3 15.3
09:55 1006 29.71 835 24.66 -3 26.6 63 -9.1 15.7
10:00 1006 29.71 835 24.66 -3 26.7 62 -9.3 15.3
10:05 1006 29.71 835 24.66 -2.8 27 62 -9.1 15.6
10:10 1006 29.71 835 24.66 -2.8 26.9 63 -8.9 15.9
10:15 1006 29.71 835 24.66 -3 26.7 64 -8.8 16.1
10:20 1006 29.71 835 24.66 -3 26.6 65 -8.8 16.2
10:25 1006 29.71 836 24.69 -2.9 26.7 64 -8.8 16.1
10:30 1006 29.71 836 24.69 -2.7 27.1 63 -8.7 16.3
10:35 1006 29.71 836 24.69 -2.4 27.8 60 -9 15.8
10:40 1007 29.74 836 24.69 -2 28.4 59 -8.9 15.9
10:45 1007 29.74 836 24.69 -1.8 28.8 59 -8.8 16.1
10:50 1007 29.74 836 24.69 -1.4 29.4 57 -8.8 16.2
10:55 1007 29.74 836 24.69 -1.3 29.7 58 -8.6 16.6
11:00 1007 29.74 836 24.69 -1.6 29.1 61 -8.3 17.1
11:05 1007 29.74 836 24.69 -2.1 28.2 62 -8.5 16.7
11:10 1007 29.74 836 24.69 -2.3 27.9 62 -8.5 16.7
11:15 1007 29.74 836 24.69 -2.5 27.5 65 -8.3 17.1
11:20 1007 29.74 836 24.69 -2.5 27.5 65 -8.2 17.3
11:25 1007 29.74 836 24.69 -2.5 27.6 63 -8.6 16.6
11:30 1007 29.74 836 24.69 -2.2 28.1 62 -8.5 16.8
11:35 1007 29.74 836 24.69 -1.9 28.6 61 -8.4 16.8
11:40 1007 29.74 836 24.69 -2 28.3 63 -8.1 17.4
11:45 1007 29.74 836 24.69 -2.3 27.9 65 -7.9 17.8
11:50 1007 29.74 836 24.69 -2.4 27.7 66 -7.9 17.7
11:55 1007 29.74 836 24.69 -2 28.3 64 -7.9 17.7
12:00 1007 29.74 836 24.69 -1.8 28.7 61 -8.3 17.1
12:05 1007 29.74 836 24.69 -1.8 28.8 60 -8.5 16.7
12:10 1007 29.74 836 24.69 -1.7 28.9 60 -8.5 16.7
12:15 1007 29.74 836 24.69 -2.1 28.2 66 -7.7 18.2
12:20 1007 29.74 836 24.69 -2.2 28 58 -9.4 15
12:25 1007 29.74 836 24.69 -1.7 28.9 55 -9.6 14.7
12:30 1007 29.74 836 24.69 -1.4 29.5 58 -8.6 16.4
12:35 1007 29.74 836 24.69 -1.6 29.1 60 -8.4 16.9
12:40 1007 29.74 837 24.72 -1.7 28.9 61 -8.2 17.2
12:45 1007 29.74 837 24.72 -1.7 28.9 59 -8.6 16.5
12:50 1007 29.74 837 24.72 -1.7 29 57 -9.1 15.6
12:55 1007 29.74 837 24.72 -1.5 29.3 56 -9.1 15.6
13:00 1007 29.74 837 24.72 -1.7 28.9 59 -8.7 16.3
13:05 1007 29.74 837 24.72 -1.8 28.7 58 -9.1 15.6
13:10 1007 29.74 837 24.72 -1.7 29 57 -9.2 15.5
13:15 1007 29.74 837 24.72 -1.6 29.1 57 -9.1 15.6
13:20 1007 29.74 837 24.72 -1.6 29.2 56 -9.1 15.6
13:25 1007 29.74 837 24.72 -1.6 29.1 58 -8.9 16
13:30 1007 29.74 837 24.72 -2 28.5 58 -9.1 15.6
13:35 1007 29.74 837 24.72 -2.1 28.2 59 -9.2 15.5
13:40 1007 29.74 837 24.72 -2.1 28.3 58 -9.2 15.4
13:45 1007 29.74 837 24.72 -2 28.3 57 -9.4 15.1
13:50 1007 29.74 837 24.72 -2.1 28.3 57 -9.5 15
13:55 1007 29.74 837 24.72 -2.2 28.1 56 -9.7 14.5
14:00 1007 29.74 837 24.72 -2.2 28 57 -9.6 14.8
14:05 1008 29.77 837 24.72 -2.2 28.1 57 -9.5 14.8
14:10 1007 29.74 837 24.72 -2.1 28.2 57 -9.6 14.8
14:15 1007 29.74 837 24.72 -1.9 28.5 55 -9.8 14.3
14:20 1008 29.77 837 24.72 -1.9 28.5 56 -9.6 14.8
14:25 1008 29.77 837 24.72 -1.8 28.7 55 -9.7 14.5
14:30 1008 29.77 837 24.72 -1.3 29.7 53 -9.6 14.8
14:35 1007 29.74 837 24.72 -0.7 30.8 50 -9.9 14.2
14:40 1007 29.74 837 24.72 -0.5 31.1 49 -10 14.1
14:45 1007 29.74 837 24.72 -0.8 30.6 49 -10.3 13.5
14:50 1007 29.74 837 24.72 -0.6 31 49 -10.1 13.9
14:55 1007 29.74 837 24.72 -0.6 30.9 46 -10.9 12.4
15:00 1007 29.74 837 24.72 -0.8 30.6 46 -10.9 12.4
15:05 1008 29.77 837 24.72 -1 30.2 46 -11.1 12.1
15:10 1008 29.77 837 24.72 -0.9 30.3 45 -11.6 11.2
15:15 1008 29.77 837 24.72 -0.8 30.5 45 -11.4 11.5
15:20 1008 29.77 837 24.72 -1 30.2 44 -11.7 11
15:25 1008 29.77 837 24.72 -1 30.2 45 -11.4 11.5
15:30 1008 29.77 837 24.72 -0.9 30.3 44 -11.7 11
15:35 1008 29.77 837 24.72 -0.9 30.4 42 -12.1 10.1
15:40 1008 29.77 837 24.72 -1 30.2 42 -12.5 9.6
15:45 1008 29.77 837 24.72 -0.8 30.5 43 -12 10.5
15:50 1008 29.77 837 24.72 -0.8 30.5 43 -12 10.5
15:55 1008 29.77 837 24.72 -1.1 30 41 -12.8 9
16:00 1008 29.77 837 24.72 -1.2 29.8 44 -12.1 10.2
16:05 1008 29.77 837 24.72 -1.8 28.7 45 -12.2 10.1
16:10 1008 29.77 837 24.72 -2.3 27.9 47 -12.1 10.1
16:15 1008 29.77 837 24.72 -2.5 27.5 48 -12.2 10.1
16:20 1008 29.77 837 24.72 -2.5 27.5 46 -12.6 9.3
16:25 1008 29.77 837 24.72 -2.1 28.2 46 -12.4 9.8
16:30 1008 29.77 837 24.72 -1.9 28.5 45 -12.4 9.7
16:35 1008 29.77 837 24.72 -1.8 28.7 46 -12 10.3
16:40 1008 29.77 837 24.72 -1.8 28.7 47 -11.8 10.7
16:45 1008 29.77 837 24.72 -1.9 28.7 45 -12.4 9.6
16:50 1008 29.77 837 24.72 -1.9 28.5 44 -12.6 9.3
16:55 1008 29.77 837 24.72 -2 28.4 45 -12.6 9.4
17:00 1008 29.77 837 24.72 -2.2 28 44 -12.9 8.7
17:05 1008 29.77 837 24.72 -2.5 27.5 44 -13.1 8.5
17:10 1008 29.77 837 24.72 -2.7 27.2 43 -13.6 7.5
17:15 1008 29.77 837 24.72 -2.8 27 42 -13.9 7
17:20 1008 29.77 837 24.72 -2.9 26.8 43 -13.8 7.2
17:25 1008 29.77 837 24.72 -3.1 26.5 43 -14 6.7
17:30 1008 29.77 837 24.72 -3.1 26.4 42 -14.3 6.3
17:35 1008 29.77 837 24.72 -3.2 26.2 43 -14.1 6.6
17:40 1008 29.77 837 24.72 -3.4 25.9 43 -14.3 6.2
17:45 1008 29.77 837 24.72 -3.5 25.7 42 -14.6 5.8
17:50 1008 29.77 837 24.72 -3.5 25.8 41 -14.9 5.3
17:55 1008 29.77 837 24.72 -3.5 25.8 42 -14.7 5.5
18:00 1008 29.77 837 24.72 -3.4 25.9 40 -15.1 4.8
18:05 1008 29.77 837 24.72 -3.3 26 39 -15.3 4.5
18:10 1008 29.77 837 24.72 -3.3 26 39 -15.5 4.1
18:15 1008 29.77 837 24.72 -3.5 25.8 40 -15.2 4.6
18:20 1008 29.77 837 24.72 -3.7 25.3 41 -15.1 4.8
18:25 1008 29.77 837 24.72 -3.8 25.1 40 -15.4 4.2
18:30 1008 29.77 837 24.72 -3.7 25.4 40 -15.4 4.2
18:35 1008 29.77 837 24.72 -3.6 25.6 41 -15.1 4.8
18:40 1008 29.77 837 24.72 -3.8 25.1 43 -14.8 5.4
18:45 1008 29.77 837 24.72 -3.9 25 43 -14.8 5.3
18:50 1008 29.77 837 24.72 -4 24.9 44 -14.6 5.7
18:55 1008 29.77 837 24.72 -3.8 25.2 41 -15.1 4.8
19:00 1008 29.77 837 24.72 -3.6 25.4 41 -15.2 4.7
19:05 1008 29.77 837 24.72 -3.6 25.6 41 -15 5
19:10 1008 29.77 837 24.72 -3.7 25.3 40 -15.5 4.1
19:15 1008 29.77 837 24.72 -3.7 25.3 41 -15.1 4.8
19:20 1008 29.77 837 24.72 -4.1 24.6 43 -14.9 5.1
19:25 1008 29.77 837 24.72 -4.4 24 42 -15.6 3.9
19:30 1008 29.77 837 24.72 -4.6 23.8 42 -15.7 3.8
19:35 1008 29.77 837 24.72 -4.6 23.7 38 -16.8 1.8
19:40 1008 29.77 837 24.72 -4.4 24 40 -16 3.1
19:45 1008 29.77 837 24.72 -4.7 23.6 39 -16.7 1.9
19:50 1008 29.77 837 24.72 -4.6 23.7 40 -16.3 2.6
19:55 1008 29.77 837 24.72 -4.4 24.1 39 -16.4 2.5
20:00 1008 29.77 837 24.72 -4.4 24.1 40 -16.2 2.9
20:05 1008 29.77 837 24.72 -4 24.8 38 -16.4 2.4
20:10 1008 29.77 837 24.72 -3.8 25.2 37 -16.3 2.6
20:15 1008 29.77 837 24.72 -3.7 25.4 37 -16.4 2.5
20:20 1008 29.77 837 24.72 -3.6 25.6 37 -16.2 2.8
20:25 1008 29.77 837 24.72 -3.5 25.8 38 -15.9 3.4
20:30 1008 29.77 837 24.72 -3.7 25.3 41 -15.3 4.4
20:35 1008 29.77 837 24.72 -4.1 24.7 39 -16.1 3
20:40 1008 29.77 837 24.72 -4 24.8 40 -15.8 3.5
20:45 1008 29.77 837 24.72 -3.9 25 41 -15.4 4.3
20:50 1008 29.77 837 24.72 -4.1 24.5 41 -15.7 3.8
20:55 1008 29.77 837 24.72 -4.5 24 41 -15.8 3.5
21:00 1008 29.77 837 24.72 -4.5 23.9 42 -15.5 4.1
21:05 1008 29.77 837 24.72 -4.5 23.9 43 -15.4 4.3
21:10 1008 29.77 837 24.72 -4.7 23.6 43 -15.4 4.3
21:15 1008 29.77 837 24.72 -4.7 23.5 44 -15.1 4.8
21:20 1007 29.74 837 24.72 -4.8 23.4 45 -15 5
21:25 1007 29.74 837 24.72 -5 23.1 44 -15.4 4.3
21:30 1007 29.74 836 24.69 -5.1 22.8 45 -15.2 4.6
21:35 1007 29.74 836 24.69 -5.1 22.8 44 -15.6 3.9
21:40 1007 29.74 836 24.69 -5.1 22.8 47 -14.8 5.3
21:45 1007 29.74 836 24.69 -5.4 22.2 44 -15.9 3.5
21:50 1007 29.74 836 24.69 -5 23 44 -15.4 4.2
21:55 1007 29.74 836 24.69 -4.8 23.4 42 -15.9 3.3
22:00 1007 29.74 836 24.69 -4.4 24.1 41 -15.8 3.6
22:05 1006 29.71 836 24.69 -3.9 24.9 39 -16 3.2
22:10 1006 29.71 836 24.69 -3.6 25.5 39 -15.8 3.6
22:15 1006 29.71 835 24.66 -3.6 25.4 39 -15.7 3.7
22:20 1006 29.71 835 24.66 -3.7 25.4 40 -15.4 4.2
22:25 1006 29.71 835 24.66 -4.2 24.4 45 -14.4 6
22:30 1006 29.71 835 24.66 -4.9 23.1 45 -15 4.9
22:35 1006 29.71 835 24.66 -4.9 23.1 46 -14.9 5.2
22:40 1006 29.71 835 24.66 -4.8 23.3 46 -14.8 5.3
22:45 1006 29.71 835 24.66 -4.8 23.4 46 -14.7 5.5
22:50 1006 29.71 835 24.66 -4.5 24 43 -15.3 4.5
22:55 1006 29.71 835 24.66 -4.4 24.1 46 -14.3 6.3
23:00 1006 29.71 835 24.66 -4.9 23.2 49 -14 6.7
23:05 1005 29.68 835 24.66 -5.2 22.7 49 -14.4 6.1
23:10 1005 29.68 835 24.66 -5.3 22.5 49 -14.3 6.3
23:15 1005 29.68 835 24.66 -5.4 22.3 51 -14 6.8
23:20 1005 29.68 834 24.63 -5.4 22.3 51 -14.1 6.7
23:25 1005 29.68 834 24.63 -5.3 22.5 52 -13.8 7.2
23:30 1005 29.68 834 24.63 -5.4 22.3 50 -14.4 6.2
23:35 1005 29.68 834 24.63 -5 22.9 48 -14.4 6.1
23:40 1005 29.68 834 24.63 -5 22.9 51 -13.8 7.2
23:45 1005 29.68 834 24.63 -5.1 22.7 51 -13.8 7.2
23:50 1005 29.68 834 24.63 -5.1 22.9 48 -14.4 6.1
23:55 1005 29.68 834 24.63 -4.9 23.2 48 -14.2 6.5
24:00 1004 29.65 834 24.63 -5 23 52 -13.4 7.9